sensor_id;sensor_type;location;lat;lon;timestamp;pressure;altitude;pressure_sealevel;temperature;humidity
79198;BME280;68628;48.714;9.472;2023-07-29T00:01:34;97698.66;;;17.10;84.99
79198;BME280;68628;48.714;9.472;2023-07-29T00:04:01;97701.56;;;17.09;85.12
79198;BME280;68628;48.714;9.472;2023-07-29T00:06:28;97684.56;;;17.10;84.72
79198;BME280;68628;48.714;9.472;2023-07-29T00:08:54;97682.50;;;17.12;84.73
79198;BME280;68628;48.714;9.472;2023-07-29T00:11:20;97683.53;;;17.11;84.92
79198;BME280;68628;48.714;9.472;2023-07-29T00:13:46;97680.03;;;17.10;85.12
79198;BME280;68628;48.714;9.472;2023-07-29T00:16:12;97674.50;;;17.12;84.97
79198;BME280;68628;48.714;9.472;2023-07-29T00:18:40;97671.59;;;17.13;85.68
79198;BME280;68628;48.714;9.472;2023-07-29T00:21:07;97677.84;;;17.31;84.79
79198;BME280;68628;48.714;9.472;2023-07-29T00:23:33;97671.72;;;17.30;84.69
79198;BME280;68628;48.714;9.472;2023-07-29T00:25:59;97664.31;;;17.32;84.45
79198;BME280;68628;48.714;9.472;2023-07-29T00:28:25;97663.84;;;17.36;84.42
79198;BME280;68628;48.714;9.472;2023-07-29T00:30:51;97663.38;;;17.39;84.26
79198;BME280;68628;48.714;9.472;2023-07-29T00:33:17;97661.88;;;17.43;84.06
79198;BME280;68628;48.714;9.472;2023-07-29T00:35:45;97661.41;;;17.46;84.28
79198;BME280;68628;48.714;9.472;2023-07-29T00:38:11;97668.94;;;17.49;84.40
79198;BME280;68628;48.714;9.472;2023-07-29T00:40:37;97669.38;;;17.58;83.43
79198;BME280;68628;48.714;9.472;2023-07-29T00:43:03;97663.69;;;17.54;83.19
79198;BME280;68628;48.714;9.472;2023-07-29T00:45:32;97666.72;;;17.58;83.21
79198;BME280;68628;48.714;9.472;2023-07-29T00:48:00;97659.91;;;17.26;84.56
79198;BME280;68628;48.714;9.472;2023-07-29T00:50:28;97649.34;;;17.43;83.75
79198;BME280;68628;48.714;9.472;2023-07-29T00:52:57;97647.19;;;17.28;83.91
79198;BME280;68628;48.714;9.472;2023-07-29T00:55:23;97652.25;;;17.30;84.73
79198;BME280;68628;48.714;9.472;2023-07-29T00:57:51;97644.97;;;17.49;84.21
79198;BME280;68628;48.714;9.472;2023-07-29T01:00:20;97644.97;;;17.61;82.89
79198;BME280;68628;48.714;9.472;2023-07-29T01:02:47;97650.19;;;17.56;83.05
79198;BME280;68628;48.714;9.472;2023-07-29T01:05:16;97655.50;;;17.56;83.22
79198;BME280;68628;48.714;9.472;2023-07-29T01:11:05;97655.50;;;17.44;83.40
79198;BME280;68628;48.714;9.472;2023-07-29T01:16:19;97655.03;;;17.47;83.94
79198;BME280;68628;48.714;9.472;2023-07-29T01:18:53;97652.50;;;17.52;83.33
79198;BME280;68628;48.714;9.472;2023-07-29T01:21:21;97645.53;;;17.51;83.10
79198;BME280;68628;48.714;9.472;2023-07-29T01:23:52;97641.72;;;17.35;84.24
79198;BME280;68628;48.714;9.472;2023-07-29T01:26:18;97644.97;;;17.61;83.52
79198;BME280;68628;48.714;9.472;2023-07-29T01:28:45;97635.31;;;17.72;82.68
79198;BME280;68628;48.714;9.472;2023-07-29T01:31:34;97627.22;;;17.67;82.83
79198;BME280;68628;48.714;9.472;2023-07-29T01:34:28;97632.44;;;17.61;83.27
79198;BME280;68628;48.714;9.472;2023-07-29T01:37:00;97633.81;;;17.64;82.78
79198;BME280;68628;48.714;9.472;2023-07-29T01:39:33;97632.31;;;17.56;82.88
79198;BME280;68628;48.714;9.472;2023-07-29T01:42:03;97631.28;;;17.57;83.03
79198;BME280;68628;48.714;9.472;2023-07-29T01:44:29;97627.59;;;17.58;83.40
79198;BME280;68628;48.714;9.472;2023-07-29T01:46:56;97628.72;;;17.62;83.41
79198;BME280;68628;48.714;9.472;2023-07-29T01:49:22;97633.94;;;17.69;82.70
79198;BME280;68628;48.714;9.472;2023-07-29T01:51:48;97638.53;;;17.74;82.12
79198;BME280;68628;48.714;9.472;2023-07-29T01:54:14;97635.22;;;17.67;82.69
79198;BME280;68628;48.714;9.472;2023-07-29T01:56:40;97640.53;;;17.67;83.05
79198;BME280;68628;48.714;9.472;2023-07-29T01:59:07;97639.94;;;17.64;82.64
79198;BME280;68628;48.714;9.472;2023-07-29T02:01:33;97638.41;;;17.80;82.43
79198;BME280;68628;48.714;9.472;2023-07-29T02:03:59;97629.63;;;17.68;82.69
79198;BME280;68628;48.714;9.472;2023-07-29T02:06:25;97624.38;;;17.85;82.01
79198;BME280;68628;48.714;9.472;2023-07-29T02:08:54;97629.03;;;17.78;82.94
79198;BME280;68628;48.714;9.472;2023-07-29T02:15:01;97623.81;;;17.83;82.33
79198;BME280;68628;48.714;9.472;2023-07-29T02:17:27;97617.44;;;17.84;82.43
79198;BME280;68628;48.714;9.472;2023-07-29T02:19:53;97606.78;;;17.84;82.33
79198;BME280;68628;48.714;9.472;2023-07-29T02:22:19;97610.50;;;17.71;82.80
79198;BME280;68628;48.714;9.472;2023-07-29T02:24:46;97612.84;;;17.68;83.76
79198;BME280;68628;48.714;9.472;2023-07-29T02:27:12;97611.22;;;17.67;83.31
79198;BME280;68628;48.714;9.472;2023-07-29T02:29:38;97622.13;;;17.65;83.23
79198;BME280;68628;48.714;9.472;2023-07-29T02:32:04;97618.31;;;17.61;83.65
79198;BME280;68628;48.714;9.472;2023-07-29T02:34:31;97620.63;;;17.57;84.04
79198;BME280;68628;48.714;9.472;2023-07-29T02:36:57;97600.34;;;17.56;84.15
79198;BME280;68628;48.714;9.472;2023-07-29T02:39:23;97597.47;;;17.58;83.45
79198;BME280;68628;48.714;9.472;2023-07-29T02:41:49;97600.59;;;17.55;83.86
79198;BME280;68628;48.714;9.472;2023-07-29T02:44:16;97615.19;;;17.52;84.17
79198;BME280;68628;48.714;9.472;2023-07-29T02:46:42;97606.41;;;17.52;83.85
79198;BME280;68628;48.714;9.472;2023-07-29T02:49:08;97603.03;;;17.44;84.00
79198;BME280;68628;48.714;9.472;2023-07-29T02:51:34;97589.50;;;17.46;83.90
79198;BME280;68628;48.714;9.472;2023-07-29T02:54:00;97589.22;;;16.95;86.64
79198;BME280;68628;48.714;9.472;2023-07-29T02:56:26;97594.84;;;17.22;85.74
79198;BME280;68628;48.714;9.472;2023-07-29T02:58:52;97587.94;;;17.21;85.06
79198;BME280;68628;48.714;9.472;2023-07-29T03:01:20;97585.81;;;17.23;84.77
79198;BME280;68628;48.714;9.472;2023-07-29T03:03:46;97596.47;;;17.23;84.69
79198;BME280;68628;48.714;9.472;2023-07-29T03:06:13;97587.44;;;17.24;84.66
79198;BME280;68628;48.714;9.472;2023-07-29T03:08:40;97581.88;;;17.26;84.71
79198;BME280;68628;48.714;9.472;2023-07-29T03:11:10;97579.56;;;17.29;84.50
79198;BME280;68628;48.714;9.472;2023-07-29T03:13:37;97575.28;;;17.28;84.34
79198;BME280;68628;48.714;9.472;2023-07-29T03:18:33;97577.03;;;17.35;84.31
79198;BME280;68628;48.714;9.472;2023-07-29T03:21:00;97570.41;;;17.37;84.56
79198;BME280;68628;48.714;9.472;2023-07-29T03:23:28;97567.03;;;17.42;84.45
79198;BME280;68628;48.714;9.472;2023-07-29T03:25:59;97559.63;;;17.44;84.57
79198;BME280;68628;48.714;9.472;2023-07-29T03:28:29;97568.06;;;17.41;84.08
79198;BME280;68628;48.714;9.472;2023-07-29T03:30:56;97563.91;;;17.33;84.56
79198;BME280;68628;48.714;9.472;2023-07-29T03:33:25;97563.13;;;17.32;84.29
79198;BME280;68628;48.714;9.472;2023-07-29T03:35:52;97560.09;;;17.29;84.41
79198;BME280;68628;48.714;9.472;2023-07-29T03:38:18;97555.94;;;17.33;84.21
79198;BME280;68628;48.714;9.472;2023-07-29T03:40:45;97546.34;;;17.32;84.33
79198;BME280;68628;48.714;9.472;2023-07-29T03:43:11;97546.09;;;17.34;84.32
79198;BME280;68628;48.714;9.472;2023-07-29T03:45:38;97556.16;;;17.31;84.47
79198;BME280;68628;48.714;9.472;2023-07-29T03:48:06;97554.34;;;17.32;84.70
79198;BME280;68628;48.714;9.472;2023-07-29T03:50:34;97556.53;;;17.35;84.47
79198;BME280;68628;48.714;9.472;2023-07-29T03:53:03;97556.97;;;17.44;84.42
79198;BME280;68628;48.714;9.472;2023-07-29T03:55:30;97559.41;;;17.45;84.13
79198;BME280;68628;48.714;9.472;2023-07-29T03:57:58;97573.75;;;17.44;84.59
79198;BME280;68628;48.714;9.472;2023-07-29T04:00:25;97560.78;;;17.48;83.93
79198;BME280;68628;48.714;9.472;2023-07-29T04:02:52;97570.72;;;17.53;83.90
79198;BME280;68628;48.714;9.472;2023-07-29T04:05:19;97567.25;;;17.52;83.64
79198;BME280;68628;48.714;9.472;2023-07-29T04:07:46;97561.00;;;17.58;83.62
79198;BME280;68628;48.714;9.472;2023-07-29T04:10:12;97549.84;;;17.61;83.38
79198;BME280;68628;48.714;9.472;2023-07-29T04:12:39;97546.72;;;17.64;83.12
79198;BME280;68628;48.714;9.472;2023-07-29T04:15:05;97554.56;;;17.71;83.14
79198;BME280;68628;48.714;9.472;2023-07-29T04:17:32;97560.63;;;17.67;83.42
79198;BME280;68628;48.714;9.472;2023-07-29T04:19:58;97563.28;;;17.67;83.07
79198;BME280;68628;48.714;9.472;2023-07-29T04:22:24;97562.78;;;17.70;83.18
79198;BME280;68628;48.714;9.472;2023-07-29T04:24:50;97557.25;;;17.59;83.14
79198;BME280;68628;48.714;9.472;2023-07-29T04:27:16;97550.94;;;17.48;84.69
79198;BME280;68628;48.714;9.472;2023-07-29T04:29:43;97552.72;;;17.72;83.54
79198;BME280;68628;48.714;9.472;2023-07-29T04:32:09;97543.75;;;17.78;82.58
79198;BME280;68628;48.714;9.472;2023-07-29T04:34:35;97547.25;;;17.78;82.49
79198;BME280;68628;48.714;9.472;2023-07-29T04:37:01;97546.91;;;17.75;82.76
79198;BME280;68628;48.714;9.472;2023-07-29T04:39:27;97549.44;;;17.81;83.26
79198;BME280;68628;48.714;9.472;2023-07-29T04:41:53;97556.91;;;17.96;82.57
79198;BME280;68628;48.714;9.472;2023-07-29T04:44:19;97555.97;;;18.03;82.35
79198;BME280;68628;48.714;9.472;2023-07-29T04:46:45;97550.59;;;18.14;82.16
79198;BME280;68628;48.714;9.472;2023-07-29T04:49:11;97546.13;;;18.20;82.06
79198;BME280;68628;48.714;9.472;2023-07-29T04:51:38;97546.72;;;18.39;81.38
79198;BME280;68628;48.714;9.472;2023-07-29T04:54:04;97555.03;;;18.43;80.81
79198;BME280;68628;48.714;9.472;2023-07-29T04:56:30;97557.66;;;18.38;81.14
79198;BME280;68628;48.714;9.472;2023-07-29T04:58:56;97587.00;;;18.38;81.13
79198;BME280;68628;48.714;9.472;2023-07-29T05:01:22;97605.81;;;18.31;81.55
79198;BME280;68628;48.714;9.472;2023-07-29T05:03:48;97580.59;;;18.22;82.30
79198;BME280;68628;48.714;9.472;2023-07-29T05:06:14;97599.63;;;18.13;83.05
79198;BME280;68628;48.714;9.472;2023-07-29T05:08:40;97579.63;;;17.87;84.24
79198;BME280;68628;48.714;9.472;2023-07-29T05:11:07;97584.41;;;17.97;84.22
79198;BME280;68628;48.714;9.472;2023-07-29T05:13:33;97568.25;;;18.04;83.92
79198;BME280;68628;48.714;9.472;2023-07-29T05:15:59;97573.09;;;18.07;85.15
79198;BME280;68628;48.714;9.472;2023-07-29T05:18:25;97578.81;;;18.27;83.63
79198;BME280;68628;48.714;9.472;2023-07-29T05:20:51;97575.31;;;18.27;82.73
79198;BME280;68628;48.714;9.472;2023-07-29T05:23:17;97589.53;;;18.15;83.26
79198;BME280;68628;48.714;9.472;2023-07-29T05:25:43;97584.44;;;18.14;83.49
79198;BME280;68628;48.714;9.472;2023-07-29T05:28:09;97586.28;;;18.13;83.53
79198;BME280;68628;48.714;9.472;2023-07-29T05:30:36;97600.53;;;18.19;83.65
79198;BME280;68628;48.714;9.472;2023-07-29T05:33:03;97603.84;;;18.26;82.41
79198;BME280;68628;48.714;9.472;2023-07-29T05:35:30;97611.66;;;18.16;82.21
79198;BME280;68628;48.714;9.472;2023-07-29T05:37:56;97616.19;;;18.15;82.90
79198;BME280;68628;48.714;9.472;2023-07-29T05:40:22;97610.00;;;17.45;85.05
79198;BME280;68628;48.714;9.472;2023-07-29T05:42:49;97606.44;;;17.28;86.85
79198;BME280;68628;48.714;9.472;2023-07-29T05:45:15;97623.28;;;17.69;85.90
79198;BME280;68628;48.714;9.472;2023-07-29T05:47:41;97621.81;;;17.14;86.86
79198;BME280;68628;48.714;9.472;2023-07-29T05:50:08;97612.75;;;17.62;85.93
79198;BME280;68628;48.714;9.472;2023-07-29T05:52:34;97610.09;;;17.62;84.97
79198;BME280;68628;48.714;9.472;2023-07-29T05:55:00;97612.41;;;17.59;86.78
79198;BME280;68628;48.714;9.472;2023-07-29T05:57:27;97593.69;;;17.94;85.52
79198;BME280;68628;48.714;9.472;2023-07-29T05:59:53;97601.09;;;17.40;87.66
79198;BME280;68628;48.714;9.472;2023-07-29T06:02:19;97601.56;;;17.13;90.39
79198;BME280;68628;48.714;9.472;2023-07-29T06:04:45;97601.47;;;17.72;87.70
79198;BME280;68628;48.714;9.472;2023-07-29T06:07:12;97609.28;;;18.03;85.45
79198;BME280;68628;48.714;9.472;2023-07-29T06:09:39;97597.47;;;17.98;85.98
79198;BME280;68628;48.714;9.472;2023-07-29T06:12:05;97599.09;;;18.00;85.85
79198;BME280;68628;48.714;9.472;2023-07-29T06:14:32;97595.78;;;17.80;87.05
79198;BME280;68628;48.714;9.472;2023-07-29T06:16:58;97590.13;;;18.35;86.89
79198;BME280;68628;48.714;9.472;2023-07-29T06:19:24;97594.09;;;18.66;83.97
79198;BME280;68628;48.714;9.472;2023-07-29T06:21:50;97597.19;;;18.12;85.46
79198;BME280;68628;48.714;9.472;2023-07-29T06:24:17;97584.56;;;18.53;84.99
79198;BME280;68628;48.714;9.472;2023-07-29T06:26:43;97578.09;;;19.39;81.41
79198;BME280;68628;48.714;9.472;2023-07-29T06:29:09;97580.53;;;19.41;80.80
79198;BME280;68628;48.714;9.472;2023-07-29T06:31:35;97577.63;;;20.74;77.63
79198;BME280;68628;48.714;9.472;2023-07-29T06:34:01;97589.94;;;21.55;73.06
79198;BME280;68628;48.714;9.472;2023-07-29T06:38:53;97580.97;;;22.18;70.92
79198;BME280;68628;48.714;9.472;2023-07-29T06:41:20;97579.13;;;21.45;71.13
79198;BME280;68628;48.714;9.472;2023-07-29T06:43:46;97581.41;;;21.74;70.66
79198;BME280;68628;48.714;9.472;2023-07-29T06:46:12;97575.72;;;21.60;69.74
79198;BME280;68628;48.714;9.472;2023-07-29T06:48:38;97579.50;;;21.64;69.13
79198;BME280;68628;48.714;9.472;2023-07-29T06:51:04;97577.56;;;22.69;66.87
79198;BME280;68628;48.714;9.472;2023-07-29T06:53:31;97582.38;;;22.77;67.59
79198;BME280;68628;48.714;9.472;2023-07-29T06:55:57;97586.69;;;22.58;68.40
79198;BME280;68628;48.714;9.472;2023-07-29T06:58:23;97583.44;;;22.35;68.23
79198;BME280;68628;48.714;9.472;2023-07-29T07:00:49;97588.19;;;22.02;70.41
79198;BME280;68628;48.714;9.472;2023-07-29T07:03:15;97595.31;;;21.60;72.05
79198;BME280;68628;48.714;9.472;2023-07-29T07:05:41;97613.56;;;21.26;74.32
79198;BME280;68628;48.714;9.472;2023-07-29T07:08:07;97618.78;;;21.00;75.91
79198;BME280;68628;48.714;9.472;2023-07-29T07:10:34;97610.81;;;20.73;77.02
79198;BME280;68628;48.714;9.472;2023-07-29T07:13:00;97622.13;;;20.53;77.87
79198;BME280;68628;48.714;9.472;2023-07-29T07:15:26;97637.91;;;20.22;79.46
79198;BME280;68628;48.714;9.472;2023-07-29T07:17:52;97638.97;;;19.98;80.31
79198;BME280;68628;48.714;9.472;2023-07-29T07:20:18;97638.63;;;19.90;79.90
79198;BME280;68628;48.714;9.472;2023-07-29T07:22:44;97653.56;;;19.69;81.08
79198;BME280;68628;48.714;9.472;2023-07-29T07:25:10;97676.13;;;19.39;82.17
79198;BME280;68628;48.714;9.472;2023-07-29T07:27:37;97670.97;;;19.15;81.93
79198;BME280;68628;48.714;9.472;2023-07-29T07:30:03;97662.63;;;18.94;83.98
79198;BME280;68628;48.714;9.472;2023-07-29T07:32:29;97657.44;;;18.71;87.05
79198;BME280;68628;48.714;9.472;2023-07-29T07:34:56;97650.94;;;18.67;86.77
79198;BME280;68628;48.714;9.472;2023-07-29T07:37:22;97653.94;;;18.70;87.34
79198;BME280;68628;48.714;9.472;2023-07-29T07:39:48;97655.47;;;18.66;87.65
79198;BME280;68628;48.714;9.472;2023-07-29T07:42:14;97654.00;;;18.58;87.64
79198;BME280;68628;48.714;9.472;2023-07-29T07:44:41;97646.78;;;18.71;86.00
79198;BME280;68628;48.714;9.472;2023-07-29T07:47:07;97641.50;;;18.76;85.76
79198;BME280;68628;48.714;9.472;2023-07-29T07:49:33;97646.63;;;19.11;85.12
79198;BME280;68628;48.714;9.472;2023-07-29T07:51:59;97645.63;;;19.35;83.55
79198;BME280;68628;48.714;9.472;2023-07-29T07:54:25;97638.50;;;19.62;81.38
79198;BME280;68628;48.714;9.472;2023-07-29T07:56:51;97623.75;;;20.26;79.86
79198;BME280;68628;48.714;9.472;2023-07-29T07:59:17;97631.09;;;20.69;77.69
79198;BME280;68628;48.714;9.472;2023-07-29T08:01:44;97631.31;;;20.89;76.91
79198;BME280;68628;48.714;9.472;2023-07-29T08:04:10;97628.94;;;20.98;76.32
79198;BME280;68628;48.714;9.472;2023-07-29T08:06:36;97626.47;;;20.91;74.99
79198;BME280;68628;48.714;9.472;2023-07-29T08:09:03;97627.72;;;21.16;75.04
79198;BME280;68628;48.714;9.472;2023-07-29T08:11:29;97629.38;;;21.22;74.08
79198;BME280;68628;48.714;9.472;2023-07-29T08:13:55;97625.84;;;21.17;74.89
79198;BME280;68628;48.714;9.472;2023-07-29T08:16:21;97628.88;;;20.88;75.95
79198;BME280;68628;48.714;9.472;2023-07-29T08:18:47;97625.22;;;21.47;74.15
79198;BME280;68628;48.714;9.472;2023-07-29T08:21:13;97629.53;;;22.11;72.33
79198;BME280;68628;48.714;9.472;2023-07-29T08:23:40;97619.19;;;22.72;70.19
79198;BME280;68628;48.714;9.472;2023-07-29T08:26:06;97631.50;;;22.78;69.45
79198;BME280;68628;48.714;9.472;2023-07-29T08:28:35;97638.50;;;22.74;70.53
79198;BME280;68628;48.714;9.472;2023-07-29T08:31:03;97636.34;;;23.33;68.67
79198;BME280;68628;48.714;9.472;2023-07-29T08:33:30;97633.88;;;23.52;67.58
79198;BME280;68628;48.714;9.472;2023-07-29T08:35:59;97634.75;;;24.07;66.10
79198;BME280;68628;48.714;9.472;2023-07-29T08:38:25;97629.78;;;26.06;60.21
79198;BME280;68628;48.714;9.472;2023-07-29T08:41:14;97630.53;;;25.10;62.93
79198;BME280;68628;48.714;9.472;2023-07-29T08:44:11;97628.25;;;24.58;64.19
79198;BME280;68628;48.714;9.472;2023-07-29T08:46:42;97629.34;;;24.52;64.34
79198;BME280;68628;48.714;9.472;2023-07-29T08:49:11;97633.72;;;24.43;65.02
79198;BME280;68628;48.714;9.472;2023-07-29T08:51:46;97642.53;;;24.09;66.31
79198;BME280;68628;48.714;9.472;2023-07-29T08:54:14;97637.91;;;24.20;65.81
79198;BME280;68628;48.714;9.472;2023-07-29T08:56:42;97642.44;;;25.04;62.97
79198;BME280;68628;48.714;9.472;2023-07-29T08:59:10;97649.34;;;26.17;60.26
79198;BME280;68628;48.714;9.472;2023-07-29T09:01:39;97641.66;;;27.29;56.38
79198;BME280;68628;48.714;9.472;2023-07-29T09:04:07;97643.78;;;28.15;54.61
79198;BME280;68628;48.714;9.472;2023-07-29T09:06:34;97647.22;;;27.51;55.20
79198;BME280;68628;48.714;9.472;2023-07-29T09:09:03;97655.31;;;30.15;49.85
79198;BME280;68628;48.714;9.472;2023-07-29T09:11:31;97641.81;;;32.01;45.74
79198;BME280;68628;48.714;9.472;2023-07-29T09:13:58;97641.91;;;33.22;40.70
79198;BME280;68628;48.714;9.472;2023-07-29T09:16:25;97641.22;;;36.61;35.81
79198;BME280;68628;48.714;9.472;2023-07-29T09:18:52;97634.25;;;39.46;30.44
79198;BME280;68628;48.714;9.472;2023-07-29T09:21:23;97639.41;;;41.74;26.93
79198;BME280;68628;48.714;9.472;2023-07-29T09:23:52;97634.31;;;41.55;27.80
79198;BME280;68628;48.714;9.472;2023-07-29T09:26:23;97637.00;;;40.93;27.14
79198;BME280;68628;48.714;9.472;2023-07-29T09:28:57;97633.06;;;37.50;30.83
79198;BME280;68628;48.714;9.472;2023-07-29T09:31:26;97627.03;;;36.19;33.80
79198;BME280;68628;48.714;9.472;2023-07-29T09:34:01;97632.94;;;34.33;36.76
79198;BME280;68628;48.714;9.472;2023-07-29T09:36:33;97615.25;;;36.35;35.22
79198;BME280;68628;48.714;9.472;2023-07-29T09:39:02;97618.72;;;34.84;36.07
79198;BME280;68628;48.714;9.472;2023-07-29T09:41:29;97609.19;;;33.35;39.21
79198;BME280;68628;48.714;9.472;2023-07-29T09:44:01;97599.56;;;34.84;35.52
79198;BME280;68628;48.714;9.472;2023-07-29T09:46:36;97601.44;;;35.60;36.67
79198;BME280;68628;48.714;9.472;2023-07-29T09:49:07;97606.16;;;32.36;40.73
79198;BME280;68628;48.714;9.472;2023-07-29T09:51:40;97600.94;;;32.98;40.56
79198;BME280;68628;48.714;9.472;2023-07-29T09:54:06;97603.53;;;32.94;39.19
79198;BME280;68628;48.714;9.472;2023-07-29T09:56:33;97598.81;;;33.78;38.94
79198;BME280;68628;48.714;9.472;2023-07-29T09:58:59;97600.66;;;35.12;35.24
79198;BME280;68628;48.714;9.472;2023-07-29T10:01:25;97614.84;;;39.84;28.54
79198;BME280;68628;48.714;9.472;2023-07-29T10:03:52;97611.16;;;38.72;29.51
79198;BME280;68628;48.714;9.472;2023-07-29T10:06:22;97583.84;;;38.59;31.07
79198;BME280;68628;48.714;9.472;2023-07-29T10:08:49;97583.44;;;36.73;33.37
79198;BME280;68628;48.714;9.472;2023-07-29T10:11:16;97576.91;;;37.01;33.29
79198;BME280;68628;48.714;9.472;2023-07-29T10:13:45;97574.06;;;36.74;32.98
79198;BME280;68628;48.714;9.472;2023-07-29T10:16:12;97579.00;;;34.91;35.86
79198;BME280;68628;48.714;9.472;2023-07-29T10:18:40;97574.47;;;33.23;38.93
79198;BME280;68628;48.714;9.472;2023-07-29T10:21:10;97575.22;;;32.86;40.73
79198;BME280;68628;48.714;9.472;2023-07-29T10:23:43;97571.75;;;33.60;40.16
79198;BME280;68628;48.714;9.472;2023-07-29T10:26:19;97587.81;;;34.27;36.09
79198;BME280;68628;48.714;9.472;2023-07-29T10:28:47;97592.81;;;38.22;31.80
79198;BME280;68628;48.714;9.472;2023-07-29T10:31:18;97577.78;;;40.91;26.43
79198;BME280;68628;48.714;9.472;2023-07-29T10:33:47;97579.63;;;37.47;30.68
79198;BME280;68628;48.714;9.472;2023-07-29T10:36:15;97563.50;;;36.76;31.00
79198;BME280;68628;48.714;9.472;2023-07-29T10:38:42;97569.13;;;39.79;27.83
79198;BME280;68628;48.714;9.472;2023-07-29T10:41:08;97571.03;;;39.15;28.42
79198;BME280;68628;48.714;9.472;2023-07-29T10:43:36;97570.28;;;37.06;30.06
79198;BME280;68628;48.714;9.472;2023-07-29T10:51:36;97562.69;;;37.99;28.98
79198;BME280;68628;48.714;9.472;2023-07-29T10:54:13;97555.72;;;32.30;38.90
79198;BME280;68628;48.714;9.472;2023-07-29T10:56:48;97558.72;;;34.07;35.55
79198;BME280;68628;48.714;9.472;2023-07-29T11:02:00;97560.25;;;31.15;42.02
79198;BME280;68628;48.714;9.472;2023-07-29T11:04:28;97552.16;;;30.88;43.32
79198;BME280;68628;48.714;9.472;2023-07-29T11:12:42;97545.50;;;30.07;42.53
79198;BME280;68628;48.714;9.472;2023-07-29T11:20:18;97549.97;;;29.28;45.83
79198;BME280;68628;48.714;9.472;2023-07-29T11:22:47;97566.47;;;30.06;43.50
79198;BME280;68628;48.714;9.472;2023-07-29T11:25:15;97560.75;;;30.90;42.67
79198;BME280;68628;48.714;9.472;2023-07-29T11:27:43;97554.50;;;31.46;42.13
79198;BME280;68628;48.714;9.472;2023-07-29T11:30:11;97560.63;;;31.94;40.97
79198;BME280;68628;48.714;9.472;2023-07-29T11:32:41;97563.69;;;31.93;38.84
79198;BME280;68628;48.714;9.472;2023-07-29T11:35:11;97567.66;;;31.95;40.24
79198;BME280;68628;48.714;9.472;2023-07-29T11:37:40;97563.25;;;31.22;43.50
79198;BME280;68628;48.714;9.472;2023-07-29T11:40:08;97568.03;;;29.90;46.24
79198;BME280;68628;48.714;9.472;2023-07-29T11:42:38;97558.00;;;29.33;46.87
79198;BME280;68628;48.714;9.472;2023-07-29T11:45:05;97563.63;;;29.45;46.80
79198;BME280;68628;48.714;9.472;2023-07-29T11:47:32;97556.97;;;29.78;46.33
79198;BME280;68628;48.714;9.472;2023-07-29T11:50:07;97558.16;;;30.47;42.11
79198;BME280;68628;48.714;9.472;2023-07-29T11:52:45;97553.88;;;31.70;39.72
79198;BME280;68628;48.714;9.472;2023-07-29T11:55:13;97545.84;;;32.37;39.08
79198;BME280;68628;48.714;9.472;2023-07-29T11:57:42;97548.53;;;32.25;38.50
79198;BME280;68628;48.714;9.472;2023-07-29T12:00:10;97541.16;;;32.04;39.34
79198;BME280;68628;48.714;9.472;2023-07-29T12:02:39;97533.59;;;32.44;40.04
79198;BME280;68628;48.714;9.472;2023-07-29T12:05:10;97544.56;;;33.14;39.38
79198;BME280;68628;48.714;9.472;2023-07-29T12:07:39;97533.75;;;33.55;38.03
79198;BME280;68628;48.714;9.472;2023-07-29T12:10:06;97541.16;;;33.79;35.18
79198;BME280;68628;48.714;9.472;2023-07-29T12:12:33;97540.13;;;32.97;37.65
79198;BME280;68628;48.714;9.472;2023-07-29T12:15:06;97536.03;;;33.16;35.19
79198;BME280;68628;48.714;9.472;2023-07-29T12:17:39;97534.31;;;33.48;36.79
79198;BME280;68628;48.714;9.472;2023-07-29T12:20:08;97532.16;;;33.04;36.53
79198;BME280;68628;48.714;9.472;2023-07-29T12:22:35;97519.00;;;32.27;37.95
79198;BME280;68628;48.714;9.472;2023-07-29T12:25:03;97512.88;;;32.30;38.05
79198;BME280;68628;48.714;9.472;2023-07-29T12:27:30;97516.34;;;33.10;36.59
79198;BME280;68628;48.714;9.472;2023-07-29T12:29:57;97504.91;;;32.71;37.99
79198;BME280;68628;48.714;9.472;2023-07-29T12:32:26;97515.59;;;32.30;38.79
79198;BME280;68628;48.714;9.472;2023-07-29T12:34:53;97507.00;;;31.86;39.47
79198;BME280;68628;48.714;9.472;2023-07-29T12:37:19;97508.19;;;31.76;39.28
79198;BME280;68628;48.714;9.472;2023-07-29T12:39:49;97517.22;;;32.10;39.52
79198;BME280;68628;48.714;9.472;2023-07-29T12:42:16;97507.97;;;32.02;36.60
79198;BME280;68628;48.714;9.472;2023-07-29T12:44:42;97505.06;;;30.97;34.87
79198;BME280;68628;48.714;9.472;2023-07-29T12:47:08;97507.75;;;30.58;36.20
79198;BME280;68628;48.714;9.472;2023-07-29T12:49:36;97505.50;;;31.16;36.76
79198;BME280;68628;48.714;9.472;2023-07-29T12:52:02;97516.56;;;31.11;36.37
79198;BME280;68628;48.714;9.472;2023-07-29T12:54:29;97528.25;;;30.47;35.81
79198;BME280;68628;48.714;9.472;2023-07-29T12:56:55;97528.25;;;30.47;36.27
79198;BME280;68628;48.714;9.472;2023-07-29T12:59:21;97529.72;;;30.18;34.86
79198;BME280;68628;48.714;9.472;2023-07-29T13:01:47;97521.28;;;29.27;35.20
79198;BME280;68628;48.714;9.472;2023-07-29T13:04:14;97516.09;;;30.27;36.60
79198;BME280;68628;48.714;9.472;2023-07-29T13:06:40;97531.47;;;30.05;35.56
79198;BME280;68628;48.714;9.472;2023-07-29T13:09:06;97529.53;;;30.32;35.70
79198;BME280;68628;48.714;9.472;2023-07-29T13:11:34;97517.56;;;30.06;35.33
79198;BME280;68628;48.714;9.472;2023-07-29T13:14:03;97522.97;;;30.50;35.42
79198;BME280;68628;48.714;9.472;2023-07-29T13:16:29;97521.06;;;30.07;35.79
79198;BME280;68628;48.714;9.472;2023-07-29T13:18:55;97510.16;;;30.68;35.93
79198;BME280;68628;48.714;9.472;2023-07-29T13:21:22;97522.00;;;31.11;35.65
79198;BME280;68628;48.714;9.472;2023-07-29T13:23:48;97522.34;;;31.10;34.51
79198;BME280;68628;48.714;9.472;2023-07-29T13:26:15;97520.22;;;31.45;34.29
79198;BME280;68628;48.714;9.472;2023-07-29T13:28:41;97521.34;;;31.14;34.91
79198;BME280;68628;48.714;9.472;2023-07-29T13:31:07;97520.88;;;31.42;34.25
79198;BME280;68628;48.714;9.472;2023-07-29T13:33:33;97515.28;;;31.00;34.63
79198;BME280;68628;48.714;9.472;2023-07-29T13:36:00;97519.13;;;31.07;34.56